Progress, Oregon
Current Conditions -  °F | °C
As of 4:10 AM on Thursday 29 Jan 2015 (Local Time) from KHIO Reporting Station
Moderate Fog Moderate Fog  
Wind Chill: 44°   Ceiling: 200
Heat Index: 44°   Visibility: 0.25mi
Dew Point: 44°   Wind: 3mph
Humidity: 100%   Direction: 320°NW
Pressure: 30.32"   Gusts: NA
Location:  45.4908°N, 122.804°W
Report Text: KHIO 291210Z AUTO 32003KT 1/4SM R13/1200V1800FT FG VV002 07/07 A3032 RMK AO2 T00670067
Loading
Personal Weather Stations






























Interactive Weather Map New forecast layout! Learn more

10-Day Weather Forecast

Advertisements
Track Severe Weather on mobile